Time;durP1;ratioP1;P1;durP2;ratioP2;P2;SDS_P1;SDS_P2;PMS_P1;PMS_P2;Temp;Humidity;BMP_temperature;BMP_pressure;BME280_temperature;BME280_humidity;BME280_pressure;Samples;Min_cycle;Max_cycle;Signal;HPM_P1;HPM_P2
2022/06/22 00:02:16;;;;;;;10.57;6.43;;;12.80;99.90;;;;;;4951211;29;20047;-92
2022/06/22 00:04:46;;;;;;;10.05;7.10;;;12.80;99.90;;;;;;4953430;28;20499;-91
2022/06/22 00:07:33;;;;;;;11.63;6.20;;;12.80;99.90;;;;;;4955384;29;20055;-92
2022/06/22 00:10:16;;;;;;;10.10;6.10;;;12.70;99.90;;;;;;4955672;29;20043;-91
2022/06/22 00:12:48;;;;;;;9.65;5.57;;;12.70;99.90;;;;;;4933180;29;20130;-93
2022/06/22 00:15:36;;;;;;;11.88;6.05;;;12.70;99.90;;;;;;4948293;29;20098;-91
2022/06/22 00:18:18;;;;;;;10.02;5.65;;;12.60;99.90;;;;;;4953235;29;20055;-93
2022/06/22 00:20:49;;;;;;;10.77;5.90;;;12.80;99.90;;;;;;4938477;29;20051;-91
2022/06/22 00:23:15;;;;;;;9.02;5.65;;;12.60;99.90;;;;;;4950610;29;20054;-93
2022/06/22 00:25:42;;;;;;;8.07;5.55;;;12.50;99.90;;;;;;4954590;28;20166;-92
2022/06/22 00:28:28;;;;;;;10.07;6.07;;;12.50;99.90;;;;;;4953440;29;20051;-92
2022/06/22 00:31:11;;;;;;;8.38;5.97;;;12.40;99.90;;;;;;4935143;29;20713;-91
2022/06/22 00:33:37;;;;;;;9.98;5.97;;;12.30;99.90;;;;;;4951277;29;20047;-92
2022/06/22 00:36:12;;;;;;;8.30;5.45;;;12.30;99.90;;;;;;4934826;29;20075;-91
2022/06/22 00:38:38;;;;;;;10.07;5.68;;;12.30;99.90;;;;;;4929967;29;20051;-91
2022/06/22 00:41:20;;;;;;;9.27;6.55;;;12.20;99.90;;;;;;4952596;29;20058;-91
2022/06/22 00:43:47;;;;;;;10.60;5.78;;;12.30;99.90;;;;;;4941207;29;20059;-91
2022/06/22 00:46:15;;;;;;;8.27;5.78;;;12.20;99.90;;;;;;4948025;29;20047;-91
2022/06/22 00:48:41;;;;;;;8.43;5.60;;;12.20;99.90;;;;;;4930524;29;20071;-91
2022/06/22 00:51:14;;;;;;;8.85;6.20;;;12.20;99.90;;;;;;4931966;29;20047;-91
2022/06/22 00:54:00;;;;;;;9.98;5.47;;;12.10;99.90;;;;;;4950554;29;20062;-89
2022/06/22 00:56:51;;;;;;;8.65;5.85;;;12.30;99.90;;;;;;4931675;29;20586;-90
2022/06/22 00:59:40;;;;;;;10.43;5.88;;;12.00;99.90;;;;;;4931889;29;20666;-91
2022/06/22 01:02:30;;;;;;;8.70;6.15;;;12.10;99.90;;;;;;4934913;29;20058;-92
2022/06/22 01:05:14;;;;;;;13.05;6.97;;;12.00;99.90;;;;;;4924259;29;20090;-92
2022/06/22 01:07:47;;;;;;;11.00;6.67;;;12.00;99.90;;;;;;4934334;29;20430;-92
2022/06/22 01:10:29;;;;;;;11.25;5.95;;;11.90;99.90;;;;;;4939322;29;20046;-91
2022/06/22 01:13:00;;;;;;;10.88;6.45;;;11.80;99.90;;;;;;4933168;29;20559;-92
2022/06/22 01:15:36;;;;;;;10.23;5.60;;;11.80;99.90;;;;;;4950887;29;20051;-91
2022/06/22 01:18:14;;;;;;;9.10;6.80;;;11.70;99.90;;;;;;4932907;29;20830;-91
2022/06/22 01:21:07;;;;;;;10.60;5.95;;;11.70;99.90;;;;;;4921869;29;20049;-91
2022/06/22 01:23:54;;;;;;;8.32;5.75;;;11.70;99.90;;;;;;4931788;29;20061;-91
2022/06/22 01:26:58;;;;;;;9.57;6.30;;;11.60;99.90;;;;;;4936129;29;20043;-93
2022/06/22 01:29:25;;;;;;;9.10;5.80;;;11.60;99.90;;;;;;4950896;29;20134;-92
2022/06/22 01:32:02;;;;;;;10.95;6.40;;;11.60;99.90;;;;;;4949467;28;20044;-91
2022/06/22 01:34:36;;;;;;;9.60;5.88;;;11.60;99.90;;;;;;4930279;29;20139;-92
2022/06/22 01:37:05;;;;;;;10.05;6.50;;;11.50;99.90;;;;;;4924943;29;20047;-91
2022/06/22 01:39:31;;;;;;;9.13;5.70;;;11.60;99.90;;;;;;4936741;29;20055;-90
2022/06/22 01:42:07;;;;;;;11.10;5.78;;;11.50;99.90;;;;;;4932834;29;20597;-92
2022/06/22 01:44:50;;;;;;;8.20;5.63;;;11.50;99.90;;;;;;4932876;29;20137;-89
2022/06/22 01:47:30;;;;;;;10.10;6.28;;;11.40;99.90;;;;;;4952216;29;20047;-92
2022/06/22 01:49:59;;;;;;;9.77;6.10;;;11.40;99.90;;;;;;4947019;28;20052;-91
2022/06/22 01:52:40;;;;;;;10.52;5.95;;;11.40;99.90;;;;;;4938077;29;20048;-90
2022/06/22 01:55:31;;;;;;;10.95;6.53;;;11.30;99.90;;;;;;4927896;29;20062;-90
2022/06/22 01:58:06;;;;;;;14.30;6.63;;;11.30;99.90;;;;;;4949289;29;20138;-92
2022/06/22 02:00:32;;;;;;;14.00;7.20;;;11.20;99.90;;;;;;4949519;29;20078;-91
2022/06/22 02:03:29;;;;;;;9.02;5.88;;;11.20;99.90;;;;;;4934545;29;20109;-91
2022/06/22 02:09:03;;;;;;;8.90;6.55;;;11.00;99.90;;;;;;4966011;29;20067;-91
2022/06/22 02:11:39;;;;;;;9.65;6.35;;;10.90;99.90;;;;;;4966300;29;20042;-91
2022/06/22 02:14:26;;;;;;;11.77;6.60;;;11.00;99.90;;;;;;4969642;29;20065;-91
2022/06/22 02:16:57;;;;;;;9.40;6.43;;;10.90;99.90;;;;;;4969580;29;20031;-90
2022/06/22 02:19:23;;;;;;;9.57;6.03;;;10.90;99.90;;;;;;4955870;29;20078;-91
2022/06/22 02:21:54;;;;;;;11.27;6.03;;;10.80;99.90;;;;;;4968006;29;20126;-91
2022/06/22 02:24:35;;;;;;;9.15;5.93;;;10.80;99.90;;;;;;4943624;29;20055;-90
2022/06/22 02:27:10;;;;;;;11.63;6.55;;;10.80;99.90;;;;;;4949347;29;20061;-91
2022/06/22 02:29:47;;;;;;;10.40;6.60;;;10.80;99.90;;;;;;4941735;29;20047;-89
2022/06/22 02:32:20;;;;;;;9.18;6.05;;;10.80;99.90;;;;;;4953574;29;20477;-90
2022/06/22 02:34:56;;;;;;;8.55;6.38;;;10.70;99.90;;;;;;4928693;29;20056;-90
2022/06/22 02:37:29;;;;;;;11.15;6.97;;;10.70;99.90;;;;;;4931539;29;20075;-91
2022/06/22 02:40:00;;;;;;;10.38;6.13;;;10.70;99.90;;;;;;4946922;29;20123;-91
2022/06/22 02:45:14;;;;;;;11.30;6.75;;;10.70;99.90;;;;;;4937638;29;20054;-90
2022/06/22 02:48:00;;;;;;;10.70;5.72;;;10.70;99.90;;;;;;4936447;29;20789;-90
2022/06/22 02:50:38;;;;;;;12.73;6.63;;;10.60;99.90;;;;;;4937000;29;20058;-90
2022/06/22 02:53:17;;;;;;;9.95;6.80;;;10.60;99.90;;;;;;4956567;29;20123;-91
2022/06/22 02:55:43;;;;;;;9.55;6.05;;;10.50;99.90;;;;;;4955303;29;20051;-91
2022/06/22 02:58:30;;;;;;;8.43;5.80;;;10.50;99.90;;;;;;4939459;29;20157;-91
2022/06/22 03:00:58;;;;;;;8.60;6.40;;;10.50;99.90;;;;;;4936475;29;20069;-92
2022/06/22 03:03:24;;;;;;;10.75;6.40;;;10.50;99.90;;;;;;4957762;29;20047;-91
2022/06/22 03:05:54;;;;;;;8.88;6.90;;;10.50;99.90;;;;;;4949165;29;20495;-91
2022/06/22 03:08:20;;;;;;;10.93;7.18;;;10.40;99.90;;;;;;4954707;29;20668;-91
2022/06/22 03:10:54;;;;;;;13.10;7.28;;;10.40;99.90;;;;;;4946626;29;20127;-89
2022/06/22 03:13:24;;;;;;;10.38;6.47;;;10.40;99.90;;;;;;4948082;29;20574;-90
2022/06/22 03:15:51;;;;;;;9.88;6.80;;;10.30;99.90;;;;;;4949926;29;20063;-89
2022/06/22 03:18:26;;;;;;;11.55;7.45;;;10.30;99.90;;;;;;4951280;29;20039;-90
2022/06/22 03:21:07;;;;;;;11.75;8.82;;;10.30;99.90;;;;;;4932800;29;20070;-90
2022/06/22 03:23:59;;;;;;;10.65;7.63;;;10.30;99.90;;;;;;4924796;29;20051;-90
2022/06/22 03:26:40;;;;;;;11.30;7.13;;;10.30;99.90;;;;;;4926638;29;20047;-90
2022/06/22 03:29:17;;;;;;;10.65;7.68;;;10.30;99.90;;;;;;4945481;29;20090;-91
2022/06/22 03:32:19;;;;;;;8.48;6.25;;;11.00;99.90;;;;;;4917629;29;20055;-90
2022/06/22 03:34:53;;;;;;;9.20;6.55;;;10.30;99.90;;;;;;4947424;29;20214;-89
2022/06/22 03:37:25;;;;;;;9.38;6.40;;;10.30;99.90;;;;;;4929299;29;20047;-90
2022/06/22 03:39:56;;;;;;;9.02;6.88;;;10.40;99.90;;;;;;4940530;29;20055;-91
2022/06/22 03:42:42;;;;;;;8.52;6.50;;;10.30;99.90;;;;;;4949295;29;20075;-89
2022/06/22 03:45:15;;;;;;;8.50;6.05;;;10.30;99.90;;;;;;4950696;29;20629;-92
2022/06/22 03:48:06;;;;;;;9.45;5.72;;;10.30;99.90;;;;;;4922005;29;20047;-91
2022/06/22 03:50:57;;;;;;;7.90;5.30;;;10.40;99.90;;;;;;4929840;29;20095;-91
2022/06/22 03:53:49;;;;;;;9.05;5.40;;;10.40;99.90;;;;;;4930693;29;20079;-91
2022/06/22 03:56:19;;;;;;;7.68;5.22;;;10.30;99.90;;;;;;4940779;28;20134;-90
2022/06/22 03:58:52;;;;;;;7.38;5.25;;;10.30;99.90;;;;;;4945928;28;20055;-91
2022/06/22 04:01:22;;;;;;;8.70;5.20;;;10.30;99.90;;;;;;4933941;29;20616;-90
2022/06/22 04:03:52;;;;;;;8.55;5.25;;;10.50;99.90;;;;;;4929873;29;20056;-90
2022/06/22 04:06:37;;;;;;;8.18;5.40;;;10.40;99.90;;;;;;4952710;29;20069;-91
2022/06/22 04:09:18;;;;;;;7.40;5.32;;;10.40;99.90;;;;;;4952350;28;20090;-89
2022/06/22 04:11:47;;;;;;;7.88;5.22;;;10.40;99.90;;;;;;4944517;29;20047;-90
2022/06/22 04:14:21;;;;;;;7.68;5.00;;;10.50;99.90;;;;;;4922054;29;20074;-89
2022/06/22 04:16:55;;;;;;;8.68;5.15;;;10.50;99.90;;;;;;4934847;29;20103;-89
2022/06/22 04:19:35;;;;;;;9.85;5.85;;;10.50;99.90;;;;;;4948791;29;20506;-89
2022/06/22 04:22:14;;;;;;;12.07;6.30;;;10.50;99.90;;;;;;4927024;29;20051;-89
2022/06/22 04:24:54;;;;;;;9.70;5.88;;;10.50;99.90;;;;;;4931322;29;20073;-89
2022/06/22 04:27:27;;;;;;;12.30;7.18;;;10.50;99.90;;;;;;4951702;29;20039;-88
2022/06/22 04:30:00;;;;;;;10.85;6.07;;;10.50;99.90;;;;;;4936030;29;20059;-89
2022/06/22 04:32:34;;;;;;;13.50;6.88;;;10.50;99.90;;;;;;4934015;29;20051;-90
2022/06/22 04:35:23;;;;;;;11.00;6.70;;;10.60;99.90;;;;;;4933680;29;20074;-89
2022/06/22 04:38:09;;;;;;;12.27;7.88;;;10.70;99.90;;;;;;4948160;29;20145;-90
2022/06/22 04:40:51;;;;;;;10.73;7.50;;;10.70;99.90;;;;;;4934375;29;20051;-90
2022/06/22 04:43:18;;;;;;;13.77;9.23;;;10.70;99.90;;;;;;4923060;29;20091;-89
2022/06/22 04:45:45;;;;;;;12.85;8.50;;;10.80;99.90;;;;;;4947577;29;20055;-90
2022/06/22 04:48:28;;;;;;;16.50;9.65;;;10.80;99.90;;;;;;4948397;29;20050;-90
2022/06/22 04:50:59;;;;;;;15.60;10.43;;;10.90;99.90;;;;;;4943924;29;20055;-89
2022/06/22 04:53:39;;;;;;;16.13;10.05;;;10.90;99.90;;;;;;4948419;29;20811;-85
2022/06/22 04:56:12;;;;;;;14.63;9.77;;;11.00;99.90;;;;;;4948121;29;20047;-88
2022/06/22 04:58:48;;;;;;;17.98;11.88;;;11.00;99.90;;;;;;4947912;29;20043;-88
2022/06/22 05:01:42;;;;;;;18.58;10.00;;;11.10;99.90;;;;;;4945836;29;20110;-89
2022/06/22 05:04:16;;;;;;;16.57;10.80;;;11.20;99.90;;;;;;4948249;28;20055;-89
2022/06/22 05:07:01;;;;;;;19.15;10.95;;;11.30;99.90;;;;;;4954305;29;20310;-90
2022/06/22 05:09:31;;;;;;;17.45;10.77;;;11.30;99.90;;;;;;4953780;28;20055;-89
2022/06/22 05:11:57;;;;;;;15.05;10.38;;;11.40;99.90;;;;;;4956932;28;20094;-90
2022/06/22 05:14:28;;;;;;;18.65;11.32;;;11.40;99.90;;;;;;4949888;28;20082;-90
2022/06/22 05:16:59;;;;;;;17.35;11.80;;;11.40;99.90;;;;;;4933455;29;20113;-86
2022/06/22 05:19:39;;;;;;;19.58;11.55;;;11.50;99.90;;;;;;4950621;29;20145;-86
2022/06/22 05:22:15;;;;;;;17.23;11.68;;;11.50;99.90;;;;;;4931416;29;20138;-88
2022/06/22 05:24:45;;;;;;;17.90;11.15;;;11.60;99.90;;;;;;4927990;28;20050;-88
2022/06/22 05:27:14;;;;;;;18.30;12.00;;;11.70;99.90;;;;;;4929426;29;20043;-89
2022/06/22 05:30:07;;;;;;;19.52;13.35;;;11.70;99.90;;;;;;4928928;29;20062;-87
2022/06/22 05:32:43;;;;;;;23.98;14.98;;;11.80;99.90;;;;;;4926643;29;20058;-91
2022/06/22 05:35:18;;;;;;;20.63;13.98;;;12.10;99.90;;;;;;4946174;28;20074;-92
2022/06/22 05:37:47;;;;;;;20.95;13.73;;;11.90;99.90;;;;;;4963341;28;20102;-93
2022/06/22 05:40:14;;;;;;;24.10;14.43;;;11.90;99.90;;;;;;4934343;29;20205;-93
2022/06/22 05:42:40;;;;;;;25.77;13.82;;;12.00;99.90;;;;;;4951923;29;20582;-93
2022/06/22 05:45:18;;;;;;;24.48;13.68;;;12.10;99.90;;;;;;4919725;29;20051;-92
2022/06/22 05:47:45;;;;;;;21.48;14.80;;;12.40;99.90;;;;;;4919645;29;20479;-92
2022/06/22 05:50:36;;;;;;;21.90;13.13;;;12.20;99.90;;;;;;4924360;29;20039;-91
2022/06/22 05:53:41;;;;;;;20.67;13.75;;;12.30;99.90;;;;;;4932787;29;20039;-89
2022/06/22 05:56:19;;;;;;;;;;;12.30;99.90;;;;;;4953492;29;20089;-92
2022/06/22 05:59:12;;;;;;;18.50;12.00;;;12.40;99.90;;;;;;4931447;29;19926;-85
2022/06/22 06:01:55;;;;;;;20.40;13.15;;;12.50;99.90;;;;;;4930110;29;20130;-84
2022/06/22 06:04:36;;;;;;;19.65;12.70;;;12.70;99.90;;;;;;4948236;28;20055;-89
2022/06/22 06:07:28;;;;;;;18.02;12.38;;;12.60;99.90;;;;;;4940129;29;20126;-93
2022/06/22 06:09:53;;;;;;;19.75;12.73;;;12.70;99.90;;;;;;4952815;29;20051;-94
2022/06/22 06:12:25;;;;;;;21.42;12.23;;;12.70;99.90;;;;;;4933508;29;20045;-94
2022/06/22 06:14:52;;;;;;;17.50;11.55;;;12.70;99.90;;;;;;4937512;29;20129;-93
2022/06/22 06:17:30;;;;;;;11.55;6.03;;;12.80;99.90;;;;;;4930311;29;20043;-89
2022/06/22 06:19:58;;;;;;;18.00;11.25;;;12.90;99.90;;;;;;4922423;29;20046;-86
2022/06/22 06:22:25;;;;;;;19.67;10.45;;;13.00;99.90;;;;;;4925066;29;20055;-90
2022/06/22 06:28:02;;;;;;;16.88;8.90;;;13.20;99.90;;;;;;4930367;29;20058;-89
2022/06/22 06:30:40;;;;;;;15.55;9.02;;;13.40;99.90;;;;;;4952250;29;20054;-93
2022/06/22 06:33:21;;;;;;;17.00;9.90;;;13.50;99.90;;;;;;4956900;29;20094;-94
2022/06/22 06:35:52;;;;;;;17.55;8.90;;;13.70;99.90;;;;;;4920460;29;20060;-93
2022/06/22 06:38:30;;;;;;;12.75;7.80;;;13.90;99.90;;;;;;4920178;29;20052;-93
2022/06/22 06:41:17;;;;;;;14.45;8.77;;;14.00;99.90;;;;;;4917875;29;20064;-91
2022/06/22 06:43:49;;;;;;;17.73;10.45;;;14.20;99.90;;;;;;4934205;29;20048;-93
2022/06/22 06:46:22;;;;;;;15.60;8.82;;;14.70;99.90;;;;;;4946494;29;20098;-93
2022/06/22 06:48:55;;;;;;;19.38;10.13;;;14.40;99.90;;;;;;4935660;29;20140;-92
2022/06/22 06:51:23;;;;;;;16.25;9.02;;;14.50;99.90;;;;;;4952370;29;20069;-93
2022/06/22 06:54:06;;;;;;;15.27;7.38;;;14.50;99.90;;;;;;4952254;29;20051;-93
2022/06/22 06:56:43;;;;;;;13.27;7.35;;;14.60;99.90;;;;;;4952440;29;20051;-92
2022/06/22 06:59:16;;;;;;;13.85;7.32;;;14.70;99.90;;;;;;4952281;29;20058;-92
2022/06/22 07:01:44;;;;;;;11.15;6.80;;;14.80;99.90;;;;;;4951827;29;20102;-93
2022/06/22 07:04:24;;;;;;;13.25;6.32;;;14.80;99.90;;;;;;4918460;29;20047;-93
2022/06/22 07:06:54;;;;;;;10.50;6.18;;;14.90;99.90;;;;;;4932629;29;20079;-92
2022/06/22 07:09:38;;;;;;;17.92;6.13;;;15.10;99.90;;;;;;4931382;29;20048;-92
2022/06/22 07:12:18;;;;;;;14.18;5.53;;;15.40;99.90;;;;;;4929685;29;20132;-91
2022/06/22 07:14:44;;;;;;;12.35;6.93;;;15.80;99.90;;;;;;4916082;29;20574;-91
2022/06/22 07:17:15;;;;;;;13.10;6.25;;;16.10;99.90;;;;;;4927729;29;20051;-92
2022/06/22 07:19:58;;;;;;;11.65;5.50;;;16.50;99.90;;;;;;4936572;29;20054;-89
2022/06/22 07:22:40;;;;;;;9.43;5.10;;;17.40;99.90;;;;;;4937119;29;20473;-90
2022/06/22 07:25:21;;;;;;;8.75;4.45;;;17.30;99.90;;;;;;4922016;29;20139;-90
2022/06/22 07:27:57;;;;;;;11.35;5.10;;;17.70;99.90;;;;;;4922573;29;20102;-90
2022/06/22 07:30:41;;;;;;;11.85;4.50;;;18.00;99.90;;;;;;4919936;29;20463;-92
2022/06/22 07:33:15;;;;;;;11.43;4.83;;;18.30;99.90;;;;;;4928135;29;20958;-92
2022/06/22 07:35:46;;;;;;;;;;;18.60;99.90;;;;;;4944546;28;20079;-93
2022/06/22 07:38:21;;;;;;;9.75;5.65;;;18.80;99.90;;;;;;4943422;29;20473;-93
2022/06/22 07:43:32;;;;;;;;;;;19.20;99.90;;;;;;4923904;29;20056;-92
2022/06/22 07:46:01;;;;;;;10.63;5.30;;;19.70;99.90;;;;;;4919296;29;19926;-92
2022/06/22 07:48:31;;;;;;;12.60;5.35;;;19.40;99.90;;;;;;4951094;28;20051;-91
2022/06/22 07:51:00;;;;;;;10.07;4.57;;;19.90;99.90;;;;;;4915683;29;20043;-93
2022/06/22 07:53:51;;;;;;;8.93;5.07;;;19.90;99.90;;;;;;4910772;29;20062;-89
2022/06/22 07:57:03;;;;;;;10.68;4.50;;;19.80;99.90;;;;;;4922073;29;20059;-87
2022/06/22 07:59:48;;;;;;;8.70;4.35;;;19.90;99.90;;;;;;4907340;29;20051;-87
2022/06/22 08:02:20;;;;;;;11.13;3.85;;;20.10;99.90;;;;;;4923319;29;20483;-92
2022/06/22 08:04:52;;;;;;;10.27;4.07;;;20.00;99.90;;;;;;4921023;28;20091;-89
2022/06/22 08:07:24;;;;;;;10.88;4.68;;;20.00;99.90;;;;;;4917749;29;20051;-87
2022/06/22 08:10:11;;;;;;;11.65;5.05;;;20.00;99.90;;;;;;4909699;29;20058;-89
2022/06/22 08:13:02;;;;;;;11.70;5.40;;;20.10;99.90;;;;;;4941508;29;20051;-88
2022/06/22 08:15:31;;;;;;;8.77;4.05;;;20.00;99.90;;;;;;4928230;29;20158;-89
2022/06/22 08:17:59;;;;;;;13.05;5.30;;;20.60;99.90;;;;;;4919353;29;20741;-88
2022/06/22 08:20:28;;;;;;;11.18;3.80;;;20.30;99.90;;;;;;4922139;29;20499;-88
2022/06/22 08:22:56;;;;;;;6.47;3.10;;;20.40;99.90;;;;;;4938886;29;20130;-89
2022/06/22 08:25:23;;;;;;;9.00;3.45;;;20.10;99.90;;;;;;4925003;29;20051;-88
2022/06/22 08:27:49;;;;;;;8.07;3.97;;;20.10;99.90;;;;;;4918732;29;20106;-90
2022/06/22 08:30:16;;;;;;;10.57;3.70;;;20.20;99.90;;;;;;4919005;29;20039;-90
2022/06/22 08:32:51;;;;;;;9.82;3.45;;;20.00;99.90;;;;;;4936544;29;20482;-88
2022/06/22 08:35:20;;;;;;;9.10;3.30;;;20.30;99.90;;;;;;4913058;29;20082;-79
2022/06/22 08:37:55;;;;;;;6.40;2.67;;;20.20;99.90;;;;;;4941312;29;20047;-81
2022/06/22 08:40:24;;;;;;;7.43;3.28;;;20.10;99.90;;;;;;4921234;29;20048;-81
2022/06/22 08:43:25;;;;;;;11.00;3.00;;;20.20;99.90;;;;;;4926058;29;20051;-80
2022/06/22 08:45:57;;;;;;;9.00;2.75;;;20.20;98.40;;;;;;4918316;29;20043;-81
2022/06/22 08:49:00;;;;;;;9.38;3.17;;;20.20;99.90;;;;;;4934289;29;20079;-81
2022/06/22 08:51:51;;;;;;;6.60;3.08;;;20.20;99.90;;;;;;4875352;29;20055;-83
2022/06/22 08:54:26;;;;;;;8.73;3.17;;;20.30;99.90;;;;;;4922838;29;20186;-83
2022/06/22 08:57:03;;;;;;;11.50;2.95;;;20.30;99.90;;;;;;4918778;29;20057;-82
2022/06/22 09:00:01;;;;;;;7.82;3.22;;;20.30;99.80;;;;;;4938086;29;20055;-82
2022/06/22 09:03:05;;;;;;;6.97;2.78;;;20.50;99.90;;;;;;4941151;29;20392;-83
2022/06/22 09:05:52;;;;;;;8.13;3.08;;;20.70;99.90;;;;;;4889585;29;20055;-82
2022/06/22 09:08:47;;;;;;;9.02;4.10;;;20.70;99.90;;;;;;4916145;28;20876;-82
2022/06/22 09:11:29;;;;;;;8.67;3.63;;;20.80;99.90;;;;;;4934131;29;20578;-81
2022/06/22 09:14:15;;;;;;;8.35;3.08;;;20.90;99.90;;;;;;4908313;29;20326;-80
2022/06/22 09:17:06;;;;;;;6.90;2.72;;;20.90;99.90;;;;;;4917947;29;20062;-80
2022/06/22 09:19:50;;;;;;;13.27;4.50;;;21.10;99.90;;;;;;4938415;29;20047;-81
2022/06/22 09:22:37;;;;;;;11.73;3.45;;;21.00;97.90;;;;;;4940508;29;20056;-80
2022/06/22 09:25:09;;;;;;;15.68;3.97;;;21.10;99.90;;;;;;4921564;29;20126;-80
2022/06/22 09:27:42;;;;;;;9.57;3.90;;;21.10;99.90;;;;;;4915561;29;20670;-80
2022/06/22 09:30:22;;;;;;;9.63;4.00;;;21.20;99.90;;;;;;4948979;28;20055;-80
2022/06/22 09:33:15;;;;;;;10.27;4.10;;;21.30;99.90;;;;;;4911783;29;20063;-80
2022/06/22 09:36:02;;;;;;;11.52;5.05;;;21.40;99.90;;;;;;4923609;29;20138;-80
2022/06/22 09:38:56;;;;;;;10.13;4.38;;;21.60;99.90;;;;;;4935611;29;20582;-80
2022/06/22 09:41:52;;;;;;;12.25;4.90;;;21.70;99.90;;;;;;4942081;29;20043;-80
2022/06/22 09:44:45;;;;;;;11.30;3.70;;;21.70;96.70;;;;;;4940554;29;20595;-80
2022/06/22 09:47:16;;;;;;;8.60;3.92;;;21.70;98.30;;;;;;4938249;28;20492;-80
2022/06/22 09:49:52;;;;;;;8.05;3.92;;;21.70;99.20;;;;;;4919124;29;20075;-81
2022/06/22 09:52:42;;;;;;;9.00;4.13;;;21.70;98.90;;;;;;4922490;29;20047;-80
2022/06/22 09:59:09;;;;;;;7.75;3.33;;;21.90;99.40;;;;;;4906387;29;20158;-81
2022/06/22 10:01:35;;;;;;;7.68;3.58;;;22.00;99.70;;;;;;4922164;29;20043;-84
2022/06/22 10:04:15;;;;;;;11.32;4.95;;;22.10;99.90;;;;;;4926190;28;20058;-83
2022/06/22 10:06:54;;;;;;;9.23;4.50;;;22.10;99.10;;;;;;4920047;28;20109;-84
2022/06/22 10:09:47;;;;;;;10.40;4.60;;;22.30;99.20;;;;;;4924170;29;20105;-84
2022/06/22 10:12:15;;;;;;;7.07;4.18;;;22.40;98.80;;;;;;4940311;28;20058;-83
2022/06/22 10:14:55;;;;;;;9.90;3.80;;;22.40;99.20;;;;;;4933549;29;20054;-81
2022/06/22 10:17:35;;;;;;;7.47;3.88;;;22.50;98.80;;;;;;4923523;29;20494;-81
2022/06/22 10:20:20;;;;;;;8.32;3.38;;;22.60;98.80;;;;;;4924623;29;20051;-81
2022/06/22 10:23:06;;;;;;;10.23;3.30;;;22.70;97.00;;;;;;4923806;29;20047;-81
2022/06/22 10:26:01;;;;;;;10.05;4.20;;;22.80;97.90;;;;;;4936757;29;20078;-81
2022/06/22 10:28:37;;;;;;;10.02;4.25;;;22.80;95.60;;;;;;4953772;28;20062;-81
2022/06/22 10:31:43;;;;;;;9.65;3.67;;;23.10;97.00;;;;;;4934000;28;20059;-81
2022/06/22 10:34:27;;;;;;;8.45;4.07;;;23.00;95.60;;;;;;4920141;29;20059;-81
2022/06/22 10:37:18;;;;;;;9.20;4.00;;;23.10;95.70;;;;;;4926489;29;20078;-81
2022/06/22 10:46:26;;;;;;;7.07;3.45;;;23.20;96.50;;;;;;4926065;29;21006;-81
2022/06/22 10:49:16;;;;;;;9.25;4.00;;;23.20;96.20;;;;;;4943102;29;20550;-82
2022/06/22 10:52:19;;;;;;;11.27;3.60;;;23.30;95.10;;;;;;4943107;28;20226;-82
2022/06/22 10:55:03;;;;;;;11.32;4.38;;;23.50;94.50;;;;;;4919854;29;20047;-82
2022/06/22 10:57:38;;;;;;;;;;;23.40;92.20;;;;;;4922379;29;20047;-82
2022/06/22 11:00:36;;;;;;;8.23;3.65;;;23.40;93.20;;;;;;4915964;29;20394;-83
2022/06/22 11:03:18;;;;;;;9.10;4.10;;;23.30;93.60;;;;;;4924525;29;20055;-83
2022/06/22 11:06:09;;;;;;;9.23;4.38;;;23.40;95.10;;;;;;4942939;28;20055;-82
2022/06/22 11:08:50;;;;;;;9.40;4.28;;;23.40;95.20;;;;;;4938937;28;20051;-82
2022/06/22 11:11:31;;;;;;;9.90;3.97;;;23.50;95.60;;;;;;4942265;28;20051;-82
2022/06/22 11:14:57;;;;;;;11.43;3.50;;;23.60;96.00;;;;;;4940716;28;20055;-81
2022/06/22 11:17:43;;;;;;;;;;;23.70;93.30;;;;;;4898565;29;20845;-80
2022/06/22 11:20:43;;;;;;;10.88;3.00;;;23.80;93.40;;;;;;4925005;28;19926;-80
2022/06/22 11:23:16;;;;;;;10.75;3.67;;;23.80;93.50;;;;;;4912160;29;20070;-80
2022/06/22 11:31:48;;;;;;;9.35;3.30;;;23.80;92.70;;;;;;4941493;28;20059;-80
2022/06/22 11:34:47;;;;;;;7.60;4.03;;;23.90;93.10;;;;;;4942487;29;20059;-78
2022/06/22 11:37:19;;;;;;;10.45;3.17;;;23.90;92.30;;;;;;4939715;28;20505;-79
2022/06/22 11:39:53;;;;;;;7.57;3.75;;;24.00;93.70;;;;;;4920495;29;20051;-79
2022/06/22 11:42:34;;;;;;;9.88;4.57;;;24.10;94.40;;;;;;4925849;29;20051;-79
2022/06/22 11:48:13;;;;;;;6.55;3.38;;;24.30;93.30;;;;;;4907708;29;20848;-79
2022/06/22 11:51:11;;;;;;;4.93;2.40;;;24.30;92.80;;;;;;4912669;29;20773;-79
2022/06/22 11:54:26;;;;;;;7.60;3.35;;;24.40;93.20;;;;;;4920434;29;20142;-78
2022/06/22 11:57:08;;;;;;;8.77;3.35;;;24.40;91.80;;;;;;4906439;29;20052;-79
2022/06/22 11:59:39;;;;;;;6.15;3.10;;;24.60;93.00;;;;;;4924354;29;20136;-80
2022/06/22 12:02:31;;;;;;;7.90;3.45;;;24.70;92.30;;;;;;4924980;29;20134;-80
2022/06/22 12:05:13;;;;;;;14.15;3.65;;;24.70;92.60;;;;;;4943721;29;20059;-80
2022/06/22 12:08:09;;;;;;;7.82;3.30;;;24.80;92.20;;;;;;4925618;29;20146;-79
2022/06/22 12:10:59;;;;;;;7.22;3.50;;;24.90;92.00;;;;;;4925171;29;20067;-79
2022/06/22 12:15:04;;;;;;;7.57;3.40;;;25.00;90.90;;;;;;4916243;29;20835;-81
2022/06/22 12:16:45;;;;;;;6.93;3.10;;;25.00;91.90;;;;;;4942076;28;20051;-80
2022/06/22 12:19:29;;;;;;;6.22;2.60;;;25.10;91.70;;;;;;4922954;29;20047;-80
2022/06/22 12:22:16;;;;;;;6.45;2.97;;;25.20;91.30;;;;;;4933732;29;20154;-80
2022/06/22 12:25:13;;;;;;;6.13;2.92;;;25.20;90.20;;;;;;4923313;29;20043;-81
2022/06/22 12:27:48;;;;;;;7.18;2.95;;;25.20;89.80;;;;;;4923864;29;20142;-80
2022/06/22 12:30:28;;;;;;;7.05;2.85;;;25.20;90.80;;;;;;4948629;29;20140;-92
2022/06/22 12:33:08;;;;;;;6.85;2.63;;;25.30;88.10;;;;;;4927129;29;20047;-87
2022/06/22 12:36:07;;;;;;;7.22;2.75;;;25.30;89.20;;;;;;4941262;28;20063;-84
2022/06/22 12:38:44;;;;;;;6.57;2.47;;;25.30;88.50;;;;;;4941025;28;20058;-84
2022/06/22 12:41:35;;;;;;;7.45;2.90;;;25.40;90.10;;;;;;4936094;29;20055;-86
2022/06/22 12:47:06;;;;;;;8.65;2.92;;;25.50;89.80;;;;;;5185847;23;20695;-89
2022/06/22 12:50:11;;;;;;;7.60;2.88;;;25.60;88.80;;;;;;4976554;28;20848;-81
2022/06/22 12:52:44;;;;;;;7.53;3.00;;;25.60;89.30;;;;;;4926566;28;20879;-82
2022/06/22 12:55:19;;;;;;;4.65;2.30;;;25.70;86.80;;;;;;4973433;28;20047;-81
2022/06/22 12:58:04;;;;;;;6.15;2.53;;;25.70;88.50;;;;;;4955700;28;20699;-82
2022/06/22 13:00:30;;;;;;;5.20;2.28;;;25.70;89.80;;;;;;4955779;28;20097;-90
2022/06/22 13:02:58;;;;;;;7.22;2.63;;;25.80;89.00;;;;;;4967607;28;20446;-88
2022/06/22 13:05:26;;;;;;;4.85;2.08;;;25.90;88.90;;;;;;4983709;28;20042;-92
2022/06/22 13:07:57;;;;;;;7.03;2.47;;;25.90;86.40;;;;;;4962948;28;20046;-90
2022/06/22 13:10:26;;;;;;;8.07;2.88;;;26.00;85.60;;;;;;4965168;28;20046;-91
2022/06/22 13:13:18;;;;;;;6.40;2.63;;;26.00;87.70;;;;;;4967605;28;20052;-91
2022/06/22 13:15:57;;;;;;;8.55;3.15;;;26.10;87.40;;;;;;4981446;28;20058;-90
2022/06/22 13:18:30;;;;;;;8.88;3.00;;;26.20;88.70;;;;;;4965514;28;20401;-90
2022/06/22 13:21:32;;;;;;;8.98;3.45;;;26.20;89.70;;;;;;4966373;28;20457;-90
2022/06/22 13:24:46;;;;;;;10.40;3.65;;;26.20;87.20;;;;;;4961781;28;20046;-91
2022/06/22 13:27:47;;;;;;;7.97;3.47;;;26.20;87.60;;;;;;4961636;28;20070;-90
2022/06/22 13:30:41;;;;;;;9.63;4.45;;;26.20;90.00;;;;;;4977910;28;20052;-86
2022/06/22 13:33:16;;;;;;;9.15;4.07;;;26.10;89.60;;;;;;4975951;28;20050;-94
2022/06/22 13:35:48;;;;;;;13.23;3.83;;;26.20;90.40;;;;;;4966931;28;20046;-88
2022/06/22 13:38:17;;;;;;;9.70;4.28;;;26.20;90.90;;;;;;4975784;28;20050;-89
2022/06/22 13:41:35;;;;;;;9.90;3.38;;;26.30;90.50;;;;;;4987736;28;20061;-91
2022/06/22 13:44:06;;;;;;;8.48;3.95;;;26.30;86.70;;;;;;4912625;29;20062;-88
2022/06/22 13:46:52;;;;;;;11.68;3.35;;;26.30;89.20;;;;;;4960464;28;20792;-86
2022/06/22 13:49:36;;;;;;;8.20;3.30;;;26.30;88.20;;;;;;4969155;28;20523;-85
2022/06/22 13:52:21;;;;;;;7.53;3.33;;;26.30;89.20;;;;;;4982557;28;20132;-83
2022/06/22 13:55:10;;;;;;;6.95;3.28;;;26.40;86.60;;;;;;4979073;28;20046;-91
2022/06/22 13:57:45;;;;;;;8.50;3.17;;;26.40;87.10;;;;;;4977244;28;20134;-91
2022/06/22 14:00:49;;;;;;;11.80;3.15;;;26.40;89.50;;;;;;4977191;28;20109;-91
2022/06/22 14:03:14;;;;;;;8.30;3.70;;;26.40;87.70;;;;;;4953408;28;20387;-91
2022/06/22 14:05:46;;;;;;;9.55;3.22;;;26.50;89.20;;;;;;4988994;28;20045;-83
2022/06/22 14:08:26;;;;;;;8.60;3.55;;;26.40;89.40;;;;;;4985412;28;20058;-84
2022/06/22 14:11:05;;;;;;;8.32;3.40;;;26.30;88.60;;;;;;4962040;28;20183;-80
2022/06/22 14:13:56;;;;;;;11.15;3.60;;;26.50;89.70;;;;;;4981499;28;20077;-81
2022/06/22 14:16:45;;;;;;;6.10;2.60;;;26.50;89.80;;;;;;4962229;28;20046;-80
2022/06/22 14:19:23;;;;;;;7.40;3.25;;;26.60;89.30;;;;;;4982193;28;20057;-79
2022/06/22 14:21:57;;;;;;;9.32;3.10;;;26.60;89.80;;;;;;4965770;28;20046;-79